Accueil
METAR-TAF:

METAR-TAF

Aéroports :

Pacific Missile Range Facility

Kekaha, Hawaï, États-Unis

latitude: 22-02-11N, longitude: 159-47-11W, altitude: 4 m

Observation

Le bulletin a été fait il y a 1 heure et 8 minutes, à 19:56 UTC
Vent 8 kt de nord-ouest
Température 29°C
Humidité 62%
Pression 1018 hPa
Visibilité: 16.1 km
Nuages épars à une hauteur de 5000 ft

METAR: PHBK 111956Z AUTO 32008KT 10SM SCT050 29/21 A3007 RMK AO2 SLP186 T02940211

Heure: 11:04 (21:04 UTC)


TAF: absent

Observations et prévisions météorologiques de plus de 4000 aéroports (messages METAR et TAF).

Les stations disponibles sont représentées par des disques jaunes et rouges sur la carte.

Passer la souris dessus pour voir le nom de la station.

Cliquer dessus pour voir les observations et prévisions météorologiques.

Pour changer de carte: cliquez sur les boutons verts avec une croix noire pour zoomer, sur le bouton vert avec un tiret pour effectuer un zoom arrière, ou sur les flèches vertes pour les cartes adjacentes.


METAR-TAF: